sensor_id;sensor_type;location;lat;lon;timestamp;P1;durP1;ratioP1;P2;durP2;ratioP2
8225;SDS011;4154;48.810;9.012;2022-11-12T00:01:51;8.23;;;6.30;;
8225;SDS011;4154;48.810;9.012;2022-11-12T00:04:18;7.03;;;6.00;;
8225;SDS011;4154;48.810;9.012;2022-11-12T00:06:50;6.20;;;5.57;;
8225;SDS011;4154;48.810;9.012;2022-11-12T00:09:21;6.20;;;5.70;;
8225;SDS011;4154;48.810;9.012;2022-11-12T00:11:49;5.73;;;5.20;;
8225;SDS011;4154;48.810;9.012;2022-11-12T00:14:18;6.00;;;5.50;;
8225;SDS011;4154;48.810;9.012;2022-11-12T00:16:47;5.60;;;5.10;;
8225;SDS011;4154;48.810;9.012;2022-11-12T00:19:16;5.60;;;5.10;;
8225;SDS011;4154;48.810;9.012;2022-11-12T00:21:42;5.33;;;4.93;;
8225;SDS011;4154;48.810;9.012;2022-11-12T00:24:14;5.87;;;5.40;;
8225;SDS011;4154;48.810;9.012;2022-11-12T00:26:43;5.60;;;5.10;;
8225;SDS011;4154;48.810;9.012;2022-11-12T00:29:11;6.23;;;5.63;;
8225;SDS011;4154;48.810;9.012;2022-11-12T00:31:50;5.80;;;5.30;;
8225;SDS011;4154;48.810;9.012;2022-11-12T00:34:19;5.60;;;5.10;;
8225;SDS011;4154;48.810;9.012;2022-11-12T00:36:51;5.53;;;5.03;;
8225;SDS011;4154;48.810;9.012;2022-11-12T00:39:27;6.60;;;6.00;;
8225;SDS011;4154;48.810;9.012;2022-11-12T00:42:00;5.20;;;4.80;;
8225;SDS011;4154;48.810;9.012;2022-11-12T00:44:27;5.53;;;5.10;;
8225;SDS011;4154;48.810;9.012;2022-11-12T00:46:58;5.50;;;5.00;;
8225;SDS011;4154;48.810;9.012;2022-11-12T00:49:27;5.57;;;5.07;;
8225;SDS011;4154;48.810;9.012;2022-11-12T00:51:53;5.77;;;5.27;;
8225;SDS011;4154;48.810;9.012;2022-11-12T00:54:20;5.53;;;5.03;;
8225;SDS011;4154;48.810;9.012;2022-11-12T00:56:49;5.50;;;5.00;;
8225;SDS011;4154;48.810;9.012;2022-11-12T00:59:24;5.37;;;4.87;;
8225;SDS011;4154;48.810;9.012;2022-11-12T01:01:56;5.50;;;5.10;;
8225;SDS011;4154;48.810;9.012;2022-11-12T01:04:39;5.00;;;4.60;;
8225;SDS011;4154;48.810;9.012;2022-11-12T01:07:09;5.70;;;5.10;;
8225;SDS011;4154;48.810;9.012;2022-11-12T01:09:40;5.30;;;4.80;;
8225;SDS011;4154;48.810;9.012;2022-11-12T01:12:09;5.47;;;4.97;;
8225;SDS011;4154;48.810;9.012;2022-11-12T01:14:35;5.30;;;4.90;;
8225;SDS011;4154;48.810;9.012;2022-11-12T01:17:04;5.40;;;5.00;;
8225;SDS011;4154;48.810;9.012;2022-11-12T01:19:34;5.27;;;4.87;;
8225;SDS011;4154;48.810;9.012;2022-11-12T01:22:05;5.67;;;5.17;;
8225;SDS011;4154;48.810;9.012;2022-11-12T01:24:35;5.47;;;4.97;;
8225;SDS011;4154;48.810;9.012;2022-11-12T01:27:01;5.40;;;4.90;;
8225;SDS011;4154;48.810;9.012;2022-11-12T01:29:30;5.20;;;4.77;;
8225;SDS011;4154;48.810;9.012;2022-11-12T01:32:03;5.30;;;4.80;;
8225;SDS011;4154;48.810;9.012;2022-11-12T01:34:32;9.23;;;5.20;;
8225;SDS011;4154;48.810;9.012;2022-11-12T01:37:18;5.03;;;4.63;;
8225;SDS011;4154;48.810;9.012;2022-11-12T01:40:02;5.13;;;4.70;;
8225;SDS011;4154;48.810;9.012;2022-11-12T01:42:31;5.30;;;4.80;;
8225;SDS011;4154;48.810;9.012;2022-11-12T01:44:58;5.27;;;4.77;;
8225;SDS011;4154;48.810;9.012;2022-11-12T01:47:26;5.60;;;5.10;;
8225;SDS011;4154;48.810;9.012;2022-11-12T01:50:07;5.20;;;4.80;;
8225;SDS011;4154;48.810;9.012;2022-11-12T01:52:39;5.47;;;4.97;;
8225;SDS011;4154;48.810;9.012;2022-11-12T01:55:27;5.33;;;4.83;;
8225;SDS011;4154;48.810;9.012;2022-11-12T02:00:39;5.40;;;5.00;;
8225;SDS011;4154;48.810;9.012;2022-11-12T02:03:12;5.33;;;4.93;;
8225;SDS011;4154;48.810;9.012;2022-11-12T02:05:52;5.63;;;5.03;;
8225;SDS011;4154;48.810;9.012;2022-11-12T02:08:25;5.37;;;4.93;;
8225;SDS011;4154;48.810;9.012;2022-11-12T02:10:54;5.73;;;5.13;;
8225;SDS011;4154;48.810;9.012;2022-11-12T02:13:23;5.23;;;4.73;;
8225;SDS011;4154;48.810;9.012;2022-11-12T02:16:10;5.17;;;4.77;;
8225;SDS011;4154;48.810;9.012;2022-11-12T02:18:42;5.73;;;5.10;;
8225;SDS011;4154;48.810;9.012;2022-11-12T02:21:08;5.20;;;4.70;;
8225;SDS011;4154;48.810;9.012;2022-11-12T02:27:19;5.00;;;4.60;;
8225;SDS011;4154;48.810;9.012;2022-11-12T02:29:46;5.23;;;4.73;;
8225;SDS011;4154;48.810;9.012;2022-11-12T02:32:15;5.20;;;4.70;;
8225;SDS011;4154;48.810;9.012;2022-11-12T02:34:55;5.10;;;4.70;;
8225;SDS011;4154;48.810;9.012;2022-11-12T02:37:33;5.60;;;5.10;;
8225;SDS011;4154;48.810;9.012;2022-11-12T02:40:08;5.07;;;4.67;;
8225;SDS011;4154;48.810;9.012;2022-11-12T02:42:41;4.93;;;4.53;;
8225;SDS011;4154;48.810;9.012;2022-11-12T02:45:22;5.13;;;4.67;;
8225;SDS011;4154;48.810;9.012;2022-11-12T02:47:58;5.00;;;4.60;;
8225;SDS011;4154;48.810;9.012;2022-11-12T02:53:01;5.47;;;4.97;;
8225;SDS011;4154;48.810;9.012;2022-11-12T02:55:32;4.80;;;4.40;;
8225;SDS011;4154;48.810;9.012;2022-11-12T02:57:58;4.80;;;4.40;;
8225;SDS011;4154;48.810;9.012;2022-11-12T03:00:25;4.73;;;4.33;;
8225;SDS011;4154;48.810;9.012;2022-11-12T03:02:53;5.40;;;4.90;;
8225;SDS011;4154;48.810;9.012;2022-11-12T03:05:29;4.90;;;4.50;;
8225;SDS011;4154;48.810;9.012;2022-11-12T03:08:05;4.63;;;4.23;;
8225;SDS011;4154;48.810;9.012;2022-11-12T03:10:39;5.03;;;4.63;;
8225;SDS011;4154;48.810;9.012;2022-11-12T03:13:08;4.77;;;4.37;;
8225;SDS011;4154;48.810;9.012;2022-11-12T03:15:42;4.83;;;4.43;;
8225;SDS011;4154;48.810;9.012;2022-11-12T03:18:15;5.07;;;4.67;;
8225;SDS011;4154;48.810;9.012;2022-11-12T03:20:44;5.20;;;4.70;;
8225;SDS011;4154;48.810;9.012;2022-11-12T03:23:13;4.93;;;4.53;;
8225;SDS011;4154;48.810;9.012;2022-11-12T03:25:45;4.87;;;4.47;;
8225;SDS011;4154;48.810;9.012;2022-11-12T03:28:14;4.70;;;4.30;;
8225;SDS011;4154;48.810;9.012;2022-11-12T03:30:43;4.83;;;4.43;;
8225;SDS011;4154;48.810;9.012;2022-11-12T03:36:17;4.60;;;4.20;;
8225;SDS011;4154;48.810;9.012;2022-11-12T03:38:46;5.13;;;4.73;;
8225;SDS011;4154;48.810;9.012;2022-11-12T03:41:14;5.03;;;4.63;;
8225;SDS011;4154;48.810;9.012;2022-11-12T03:43:43;5.33;;;4.87;;
8225;SDS011;4154;48.810;9.012;2022-11-12T03:46:10;5.13;;;4.73;;
8225;SDS011;4154;48.810;9.012;2022-11-12T03:48:39;5.13;;;4.67;;
8225;SDS011;4154;48.810;9.012;2022-11-12T03:51:19;4.73;;;4.33;;
8225;SDS011;4154;48.810;9.012;2022-11-12T03:54:02;4.80;;;4.40;;
8225;SDS011;4154;48.810;9.012;2022-11-12T03:56:28;5.47;;;4.97;;
8225;SDS011;4154;48.810;9.012;2022-11-12T03:58:59;4.90;;;4.50;;
8225;SDS011;4154;48.810;9.012;2022-11-12T04:01:32;5.10;;;4.70;;
8225;SDS011;4154;48.810;9.012;2022-11-12T04:04:01;5.00;;;4.60;;
8225;SDS011;4154;48.810;9.012;2022-11-12T04:06:33;5.13;;;4.63;;
8225;SDS011;4154;48.810;9.012;2022-11-12T04:09:23;4.80;;;4.40;;
8225;SDS011;4154;48.810;9.012;2022-11-12T04:11:54;4.60;;;4.20;;
8225;SDS011;4154;48.810;9.012;2022-11-12T04:14:45;5.10;;;4.60;;
8225;SDS011;4154;48.810;9.012;2022-11-12T04:17:16;4.67;;;4.27;;
8225;SDS011;4154;48.810;9.012;2022-11-12T04:20:03;5.27;;;4.70;;
8225;SDS011;4154;48.810;9.012;2022-11-12T04:22:48;5.57;;;4.70;;
8225;SDS011;4154;48.810;9.012;2022-11-12T04:25:15;5.37;;;4.87;;
8225;SDS011;4154;48.810;9.012;2022-11-12T04:28:19;4.73;;;4.33;;
8225;SDS011;4154;48.810;9.012;2022-11-12T04:30:51;4.90;;;4.50;;
8225;SDS011;4154;48.810;9.012;2022-11-12T04:33:24;5.10;;;4.70;;
8225;SDS011;4154;48.810;9.012;2022-11-12T04:35:53;4.60;;;4.20;;
8225;SDS011;4154;48.810;9.012;2022-11-12T04:38:19;5.40;;;5.00;;
8225;SDS011;4154;48.810;9.012;2022-11-12T04:40:45;5.07;;;4.67;;
8225;SDS011;4154;48.810;9.012;2022-11-12T04:43:33;5.10;;;4.70;;
8225;SDS011;4154;48.810;9.012;2022-11-12T04:46:18;4.67;;;4.27;;
8225;SDS011;4154;48.810;9.012;2022-11-12T04:48:44;5.03;;;4.63;;
8225;SDS011;4154;48.810;9.012;2022-11-12T04:51:15;4.20;;;3.90;;
8225;SDS011;4154;48.810;9.012;2022-11-12T04:54:10;4.67;;;4.30;;
8225;SDS011;4154;48.810;9.012;2022-11-12T04:56:39;4.90;;;4.50;;
8225;SDS011;4154;48.810;9.012;2022-11-12T04:59:05;5.17;;;4.67;;
8225;SDS011;4154;48.810;9.012;2022-11-12T05:01:34;4.93;;;4.47;;
8225;SDS011;4154;48.810;9.012;2022-11-12T05:04:05;5.00;;;4.60;;
8225;SDS011;4154;48.810;9.012;2022-11-12T05:06:34;4.80;;;4.40;;
8225;SDS011;4154;48.810;9.012;2022-11-12T05:09:20;4.90;;;4.50;;
8225;SDS011;4154;48.810;9.012;2022-11-12T05:11:50;4.70;;;4.30;;
8225;SDS011;4154;48.810;9.012;2022-11-12T05:14:22;4.97;;;4.57;;
8225;SDS011;4154;48.810;9.012;2022-11-12T05:16:49;5.10;;;4.50;;
8225;SDS011;4154;48.810;9.012;2022-11-12T05:19:16;4.50;;;4.10;;
8225;SDS011;4154;48.810;9.012;2022-11-12T05:22:02;4.53;;;4.20;;
8225;SDS011;4154;48.810;9.012;2022-11-12T05:27:04;4.67;;;4.27;;
8225;SDS011;4154;48.810;9.012;2022-11-12T05:29:45;5.57;;;4.70;;
8225;SDS011;4154;48.810;9.012;2022-11-12T05:32:16;5.10;;;4.60;;
8225;SDS011;4154;48.810;9.012;2022-11-12T05:34:53;4.60;;;4.20;;
8225;SDS011;4154;48.810;9.012;2022-11-12T05:37:19;4.47;;;4.10;;
8225;SDS011;4154;48.810;9.012;2022-11-12T05:39:46;4.73;;;4.33;;
8225;SDS011;4154;48.810;9.012;2022-11-12T05:42:22;4.70;;;4.30;;
8225;SDS011;4154;48.810;9.012;2022-11-12T05:44:48;4.73;;;4.33;;
8225;SDS011;4154;48.810;9.012;2022-11-12T05:47:17;4.13;;;3.83;;
8225;SDS011;4154;48.810;9.012;2022-11-12T05:49:48;4.70;;;4.30;;
8225;SDS011;4154;48.810;9.012;2022-11-12T05:52:17;4.47;;;4.07;;
8225;SDS011;4154;48.810;9.012;2022-11-12T05:54:48;4.80;;;4.40;;
8225;SDS011;4154;48.810;9.012;2022-11-12T05:57:15;4.80;;;4.30;;
8225;SDS011;4154;48.810;9.012;2022-11-12T05:59:51;4.13;;;3.83;;
8225;SDS011;4154;48.810;9.012;2022-11-12T06:02:22;4.30;;;4.00;;
8225;SDS011;4154;48.810;9.012;2022-11-12T06:04:51;4.60;;;4.20;;
8225;SDS011;4154;48.810;9.012;2022-11-12T06:07:18;4.00;;;3.70;;
8225;SDS011;4154;48.810;9.012;2022-11-12T06:09:47;4.40;;;4.00;;
8225;SDS011;4154;48.810;9.012;2022-11-12T06:12:22;4.17;;;3.87;;
8225;SDS011;4154;48.810;9.012;2022-11-12T06:14:57;4.30;;;4.00;;
8225;SDS011;4154;48.810;9.012;2022-11-12T06:17:33;4.10;;;3.80;;
8225;SDS011;4154;48.810;9.012;2022-11-12T06:20:17;4.17;;;3.87;;
8225;SDS011;4154;48.810;9.012;2022-11-12T06:22:50;4.50;;;4.20;;
8225;SDS011;4154;48.810;9.012;2022-11-12T06:25:22;4.70;;;4.30;;
8225;SDS011;4154;48.810;9.012;2022-11-12T06:28:05;4.60;;;4.20;;
8225;SDS011;4154;48.810;9.012;2022-11-12T06:30:44;4.20;;;3.90;;
8225;SDS011;4154;48.810;9.012;2022-11-12T06:33:26;4.57;;;4.17;;
8225;SDS011;4154;48.810;9.012;2022-11-12T06:35:59;5.13;;;4.10;;
8225;SDS011;4154;48.810;9.012;2022-11-12T06:38:41;4.33;;;3.93;;
8225;SDS011;4154;48.810;9.012;2022-11-12T06:44:19;4.40;;;4.10;;
8225;SDS011;4154;48.810;9.012;2022-11-12T06:46:51;4.60;;;4.20;;
8225;SDS011;4154;48.810;9.012;2022-11-12T06:49:23;4.37;;;3.97;;
8225;SDS011;4154;48.810;9.012;2022-11-12T06:51:59;4.60;;;4.20;;
8225;SDS011;4154;48.810;9.012;2022-11-12T06:54:43;4.47;;;4.07;;
8225;SDS011;4154;48.810;9.012;2022-11-12T06:57:10;4.27;;;3.87;;
8225;SDS011;4154;48.810;9.012;2022-11-12T06:59:58;4.73;;;4.33;;
8225;SDS011;4154;48.810;9.012;2022-11-12T07:02:24;4.47;;;4.07;;
8225;SDS011;4154;48.810;9.012;2022-11-12T07:05:00;5.00;;;4.60;;
8225;SDS011;4154;48.810;9.012;2022-11-12T07:07:27;4.77;;;4.37;;
8225;SDS011;4154;48.810;9.012;2022-11-12T07:10:30;4.80;;;4.40;;
8225;SDS011;4154;48.810;9.012;2022-11-12T07:13:06;4.80;;;4.40;;
8225;SDS011;4154;48.810;9.012;2022-11-12T07:15:35;5.00;;;4.60;;
8225;SDS011;4154;48.810;9.012;2022-11-12T07:18:09;4.80;;;4.40;;
8225;SDS011;4154;48.810;9.012;2022-11-12T07:20:49;4.80;;;4.40;;
8225;SDS011;4154;48.810;9.012;2022-11-12T07:23:30;5.03;;;4.60;;
8225;SDS011;4154;48.810;9.012;2022-11-12T07:28:43;4.87;;;4.43;;
8225;SDS011;4154;48.810;9.012;2022-11-12T07:31:18;5.07;;;4.67;;
8225;SDS011;4154;48.810;9.012;2022-11-12T07:33:50;4.77;;;4.37;;
8225;SDS011;4154;48.810;9.012;2022-11-12T07:36:33;4.97;;;4.27;;
8225;SDS011;4154;48.810;9.012;2022-11-12T07:39:21;6.23;;;4.50;;
8225;SDS011;4154;48.810;9.012;2022-11-12T07:42:06;5.03;;;4.60;;
8225;SDS011;4154;48.810;9.012;2022-11-12T07:44:53;4.77;;;4.37;;
8225;SDS011;4154;48.810;9.012;2022-11-12T07:47:24;5.20;;;4.70;;
8225;SDS011;4154;48.810;9.012;2022-11-12T07:49:56;4.77;;;4.30;;
8225;SDS011;4154;48.810;9.012;2022-11-12T07:52:33;5.00;;;4.60;;
8225;SDS011;4154;48.810;9.012;2022-11-12T07:55:00;4.60;;;4.20;;
8225;SDS011;4154;48.810;9.012;2022-11-12T07:57:40;5.00;;;4.40;;
8225;SDS011;4154;48.810;9.012;2022-11-12T08:00:29;4.40;;;4.10;;
8225;SDS011;4154;48.810;9.012;2022-11-12T08:03:01;5.00;;;4.50;;
8225;SDS011;4154;48.810;9.012;2022-11-12T08:05:54;5.50;;;5.00;;
8225;SDS011;4154;48.810;9.012;2022-11-12T08:08:34;5.17;;;4.77;;
8225;SDS011;4154;48.810;9.012;2022-11-12T08:11:08;5.47;;;5.00;;
8225;SDS011;4154;48.810;9.012;2022-11-12T08:13:47;6.27;;;4.97;;
8225;SDS011;4154;48.810;9.012;2022-11-12T08:16:37;5.57;;;5.07;;
8225;SDS011;4154;48.810;9.012;2022-11-12T08:19:09;5.00;;;4.60;;
8225;SDS011;4154;48.810;9.012;2022-11-12T08:21:48;4.57;;;4.17;;
8225;SDS011;4154;48.810;9.012;2022-11-12T08:24:17;5.27;;;4.77;;
8225;SDS011;4154;48.810;9.012;2022-11-12T08:27:18;4.80;;;4.40;;
8225;SDS011;4154;48.810;9.012;2022-11-12T08:29:55;5.17;;;4.77;;
8225;SDS011;4154;48.810;9.012;2022-11-12T08:32:29;5.37;;;4.87;;
8225;SDS011;4154;48.810;9.012;2022-11-12T08:34:56;5.43;;;4.93;;
8225;SDS011;4154;48.810;9.012;2022-11-12T08:40:40;4.80;;;4.40;;
8225;SDS011;4154;48.810;9.012;2022-11-12T08:43:12;4.53;;;4.13;;
8225;SDS011;4154;48.810;9.012;2022-11-12T08:48:27;4.63;;;4.23;;
8225;SDS011;4154;48.810;9.012;2022-11-12T08:51:05;4.63;;;4.23;;
8225;SDS011;4154;48.810;9.012;2022-11-12T08:57:18;4.73;;;4.23;;
8225;SDS011;4154;48.810;9.012;2022-11-12T09:00:56;4.50;;;4.10;;
8225;SDS011;4154;48.810;9.012;2022-11-12T09:03:39;4.30;;;3.90;;
8225;SDS011;4154;48.810;9.012;2022-11-12T09:06:27;4.70;;;4.30;;
8225;SDS011;4154;48.810;9.012;2022-11-12T09:09:02;4.47;;;4.07;;
8225;SDS011;4154;48.810;9.012;2022-11-12T09:11:28;4.77;;;3.83;;
8225;SDS011;4154;48.810;9.012;2022-11-12T09:13:54;4.40;;;4.00;;
8225;SDS011;4154;48.810;9.012;2022-11-12T09:16:36;3.77;;;3.47;;
8225;SDS011;4154;48.810;9.012;2022-11-12T09:19:11;3.73;;;3.27;;
8225;SDS011;4154;48.810;9.012;2022-11-12T09:21:40;3.80;;;3.50;;
8225;SDS011;4154;48.810;9.012;2022-11-12T09:27:12;5.00;;;4.53;;
8225;SDS011;4154;48.810;9.012;2022-11-12T09:29:50;6.37;;;5.77;;
8225;SDS011;4154;48.810;9.012;2022-11-12T09:32:17;5.83;;;5.33;;
8225;SDS011;4154;48.810;9.012;2022-11-12T09:34:50;5.80;;;5.30;;
8225;SDS011;4154;48.810;9.012;2022-11-12T09:37:30;5.57;;;5.07;;
8225;SDS011;4154;48.810;9.012;2022-11-12T09:40:40;7.50;;;6.10;;
8225;SDS011;4154;48.810;9.012;2022-11-12T09:49:29;5.57;;;5.07;;
8225;SDS011;4154;48.810;9.012;2022-11-12T09:52:26;6.43;;;5.83;;
8225;SDS011;4154;48.810;9.012;2022-11-12T09:55:27;6.20;;;5.70;;
8225;SDS011;4154;48.810;9.012;2022-11-12T09:58:52;5.80;;;5.30;;
8225;SDS011;4154;48.810;9.012;2022-11-12T10:21:05;5.90;;;5.40;;
8225;SDS011;4154;48.810;9.012;2022-11-12T10:23:55;6.60;;;5.90;;
8225;SDS011;4154;48.810;9.012;2022-11-12T10:26:28;6.03;;;5.53;;
8225;SDS011;4154;48.810;9.012;2022-11-12T10:31:41;5.63;;;5.20;;
8225;SDS011;4154;48.810;9.012;2022-11-12T10:34:22;6.33;;;5.73;;
8225;SDS011;4154;48.810;9.012;2022-11-12T10:36:59;6.50;;;5.90;;
8225;SDS011;4154;48.810;9.012;2022-11-12T10:43:36;6.00;;;5.50;;
8225;SDS011;4154;48.810;9.012;2022-11-12T10:46:16;6.20;;;5.70;;
8225;SDS011;4154;48.810;9.012;2022-11-12T10:48:54;6.50;;;5.90;;
8225;SDS011;4154;48.810;9.012;2022-11-12T10:51:45;6.00;;;5.50;;
8225;SDS011;4154;48.810;9.012;2022-11-12T10:54:37;5.90;;;5.40;;
8225;SDS011;4154;48.810;9.012;2022-11-12T10:57:19;6.37;;;5.70;;
8225;SDS011;4154;48.810;9.012;2022-11-12T11:03:00;5.90;;;5.40;;
8225;SDS011;4154;48.810;9.012;2022-11-12T11:08:53;5.60;;;5.10;;
8225;SDS011;4154;48.810;9.012;2022-11-12T11:11:53;6.67;;;5.80;;
8225;SDS011;4154;48.810;9.012;2022-11-12T11:17:18;6.00;;;5.50;;
8225;SDS011;4154;48.810;9.012;2022-11-12T11:19:55;6.10;;;5.50;;
8225;SDS011;4154;48.810;9.012;2022-11-12T11:26:06;5.57;;;5.07;;
8225;SDS011;4154;48.810;9.012;2022-11-12T11:32:33;5.73;;;5.23;;
8225;SDS011;4154;48.810;9.012;2022-11-12T11:35:12;5.53;;;5.03;;
8225;SDS011;4154;48.810;9.012;2022-11-12T11:45:51;5.73;;;5.23;;
8225;SDS011;4154;48.810;9.012;2022-11-12T12:05:17;5.80;;;5.30;;
8225;SDS011;4154;48.810;9.012;2022-11-12T12:08:33;7.70;;;5.87;;
8225;SDS011;4154;48.810;9.012;2022-11-12T12:11:13;5.73;;;5.27;;
8225;SDS011;4154;48.810;9.012;2022-11-12T12:18:05;5.10;;;4.70;;
8225;SDS011;4154;48.810;9.012;2022-11-12T12:24:26;6.00;;;5.50;;
8225;SDS011;4154;48.810;9.012;2022-11-12T12:27:33;5.70;;;5.20;;
8225;SDS011;4154;48.810;9.012;2022-11-12T12:30:34;5.77;;;5.27;;
8225;SDS011;4154;48.810;9.012;2022-11-12T12:33:22;6.47;;;5.87;;
8225;SDS011;4154;48.810;9.012;2022-11-12T12:42:52;7.47;;;5.10;;
8225;SDS011;4154;48.810;9.012;2022-11-12T12:46:02;5.40;;;4.90;;
8225;SDS011;4154;48.810;9.012;2022-11-12T12:49:10;5.67;;;5.17;;
8225;SDS011;4154;48.810;9.012;2022-11-12T12:52:11;5.30;;;4.80;;
8225;SDS011;4154;48.810;9.012;2022-11-12T12:58:53;5.60;;;5.10;;
8225;SDS011;4154;48.810;9.012;2022-11-12T13:01:49;5.00;;;4.60;;
8225;SDS011;4154;48.810;9.012;2022-11-12T13:05:36;4.77;;;4.37;;
8225;SDS011;4154;48.810;9.012;2022-11-12T13:08:59;5.27;;;4.43;;
8225;SDS011;4154;48.810;9.012;2022-11-12T13:11:49;4.70;;;4.30;;
8225;SDS011;4154;48.810;9.012;2022-11-12T13:29:22;5.73;;;4.43;;
8225;SDS011;4154;48.810;9.012;2022-11-12T13:31:48;4.70;;;4.30;;
8225;SDS011;4154;48.810;9.012;2022-11-12T13:57:49;5.20;;;4.80;;
8225;SDS011;4154;48.810;9.012;2022-11-12T14:00:39;5.73;;;5.07;;
8225;SDS011;4154;48.810;9.012;2022-11-12T14:03:19;5.60;;;5.00;;
8225;SDS011;4154;48.810;9.012;2022-11-12T14:06:11;5.80;;;5.20;;
8225;SDS011;4154;48.810;9.012;2022-11-12T14:11:48;6.43;;;5.00;;
8225;SDS011;4154;48.810;9.012;2022-11-12T14:21:12;5.87;;;5.33;;
8225;SDS011;4154;48.810;9.012;2022-11-12T14:23:48;6.03;;;5.53;;
8225;SDS011;4154;48.810;9.012;2022-11-12T14:26:40;5.77;;;5.23;;
8225;SDS011;4154;48.810;9.012;2022-11-12T14:29:23;6.63;;;6.03;;
8225;SDS011;4154;48.810;9.012;2022-11-12T14:31:59;6.63;;;6.07;;
8225;SDS011;4154;48.810;9.012;2022-11-12T14:34:28;6.83;;;6.13;;
8225;SDS011;4154;48.810;9.012;2022-11-12T14:36:59;7.60;;;6.20;;
8225;SDS011;4154;48.810;9.012;2022-11-12T14:39:29;7.30;;;6.60;;
8225;SDS011;4154;48.810;9.012;2022-11-12T14:42:12;7.13;;;6.40;;
8225;SDS011;4154;48.810;9.012;2022-11-12T14:44:53;7.73;;;7.03;;
8225;SDS011;4154;48.810;9.012;2022-11-12T14:47:22;7.23;;;6.50;;
8225;SDS011;4154;48.810;9.012;2022-11-12T14:49:51;7.47;;;6.77;;
8225;SDS011;4154;48.810;9.012;2022-11-12T14:52:29;9.23;;;6.80;;
8225;SDS011;4154;48.810;9.012;2022-11-12T14:55:18;7.73;;;6.90;;
8225;SDS011;4154;48.810;9.012;2022-11-12T14:57:57;7.67;;;6.47;;
8225;SDS011;4154;48.810;9.012;2022-11-12T15:03:24;7.27;;;6.63;;
8225;SDS011;4154;48.810;9.012;2022-11-12T15:06:09;7.53;;;6.83;;
8225;SDS011;4154;48.810;9.012;2022-11-12T15:09:09;7.50;;;6.90;;
8225;SDS011;4154;48.810;9.012;2022-11-12T15:12:10;7.70;;;7.00;;
8225;SDS011;4154;48.810;9.012;2022-11-12T15:15:02;7.70;;;7.00;;
8225;SDS011;4154;48.810;9.012;2022-11-12T15:17:57;8.03;;;7.23;;
8225;SDS011;4154;48.810;9.012;2022-11-12T15:20:43;8.07;;;7.27;;
8225;SDS011;4154;48.810;9.012;2022-11-12T15:23:15;8.60;;;7.50;;
8225;SDS011;4154;48.810;9.012;2022-11-12T15:26:23;9.13;;;7.80;;
8225;SDS011;4154;48.810;9.012;2022-11-12T15:37:24;9.27;;;8.37;;
8225;SDS011;4154;48.810;9.012;2022-11-12T15:40:18;9.13;;;8.17;;
8225;SDS011;4154;48.810;9.012;2022-11-12T15:42:50;9.77;;;8.77;;
8225;SDS011;4154;48.810;9.012;2022-11-12T15:45:30;13.40;;;12.20;;
8225;SDS011;4154;48.810;9.012;2022-11-12T15:48:09;16.63;;;15.03;;
8225;SDS011;4154;48.810;9.012;2022-11-12T15:53:43;15.47;;;13.60;;
8225;SDS011;4154;48.810;9.012;2022-11-12T15:56:19;12.23;;;10.93;;
8225;SDS011;4154;48.810;9.012;2022-11-12T15:58:59;12.27;;;10.93;;
8225;SDS011;4154;48.810;9.012;2022-11-12T16:01:50;12.07;;;10.87;;
8225;SDS011;4154;48.810;9.012;2022-11-12T16:04:40;11.67;;;10.47;;
8225;SDS011;4154;48.810;9.012;2022-11-12T16:07:12;11.83;;;10.63;;
8225;SDS011;4154;48.810;9.012;2022-11-12T16:09:47;12.40;;;11.03;;
8225;SDS011;4154;48.810;9.012;2022-11-12T16:12:41;12.73;;;11.43;;
8225;SDS011;4154;48.810;9.012;2022-11-12T16:15:12;11.67;;;10.47;;
8225;SDS011;4154;48.810;9.012;2022-11-12T16:21:26;9.77;;;8.87;;
8225;SDS011;4154;48.810;9.012;2022-11-12T16:24:42;11.27;;;10.23;;
8225;SDS011;4154;48.810;9.012;2022-11-12T16:31:34;11.97;;;10.77;;
8225;SDS011;4154;48.810;9.012;2022-11-12T16:34:18;11.50;;;10.30;;
8225;SDS011;4154;48.810;9.012;2022-11-12T16:37:12;10.97;;;9.97;;
8225;SDS011;4154;48.810;9.012;2022-11-12T16:40:05;11.33;;;10.23;;
8225;SDS011;4154;48.810;9.012;2022-11-12T16:46:53;11.20;;;10.10;;
8225;SDS011;4154;48.810;9.012;2022-11-12T16:50:03;12.60;;;10.83;;
8225;SDS011;4154;48.810;9.012;2022-11-12T16:52:59;11.80;;;10.57;;
8225;SDS011;4154;48.810;9.012;2022-11-12T16:55:31;12.43;;;11.23;;
8225;SDS011;4154;48.810;9.012;2022-11-12T16:58:17;12.20;;;10.93;;
8225;SDS011;4154;48.810;9.012;2022-11-12T17:01:24;12.40;;;11.20;;
8225;SDS011;4154;48.810;9.012;2022-11-12T17:04:18;11.77;;;10.60;;
8225;SDS011;4154;48.810;9.012;2022-11-12T17:10:43;11.40;;;10.40;;
8225;SDS011;4154;48.810;9.012;2022-11-12T17:14:07;12.20;;;11.00;;
8225;SDS011;4154;48.810;9.012;2022-11-12T17:24:36;18.53;;;16.63;;
8225;SDS011;4154;48.810;9.012;2022-11-12T17:27:17;19.70;;;17.80;;
8225;SDS011;4154;48.810;9.012;2022-11-12T17:29:55;16.77;;;15.07;;
8225;SDS011;4154;48.810;9.012;2022-11-12T17:44:18;16.40;;;14.80;;
8225;SDS011;4154;48.810;9.012;2022-11-12T17:47:16;15.57;;;13.97;;
8225;SDS011;4154;48.810;9.012;2022-11-12T17:50:32;16.57;;;14.50;;
8225;SDS011;4154;48.810;9.012;2022-11-12T17:53:23;21.13;;;18.83;;
8225;SDS011;4154;48.810;9.012;2022-11-12T17:56:44;18.83;;;16.83;;
8225;SDS011;4154;48.810;9.012;2022-11-12T18:03:07;14.77;;;13.27;;
8225;SDS011;4154;48.810;9.012;2022-11-12T18:09:13;15.40;;;13.90;;
8225;SDS011;4154;48.810;9.012;2022-11-12T18:12:10;15.83;;;13.63;;
8225;SDS011;4154;48.810;9.012;2022-11-12T18:14:44;13.73;;;12.30;;
8225;SDS011;4154;48.810;9.012;2022-11-12T18:17:44;12.97;;;11.70;;
8225;SDS011;4154;48.810;9.012;2022-11-12T18:20:55;17.87;;;13.73;;
8225;SDS011;4154;48.810;9.012;2022-11-12T18:23:34;17.43;;;15.57;;
8225;SDS011;4154;48.810;9.012;2022-11-12T18:30:28;25.37;;;21.47;;
8225;SDS011;4154;48.810;9.012;2022-11-12T18:37:26;11.57;;;10.27;;
8225;SDS011;4154;48.810;9.012;2022-11-12T18:40:58;10.93;;;9.90;;
8225;SDS011;4154;48.810;9.012;2022-11-12T18:44:27;10.73;;;9.67;;
8225;SDS011;4154;48.810;9.012;2022-11-12T18:51:20;10.80;;;9.70;;
8225;SDS011;4154;48.810;9.012;2022-11-12T18:58:39;11.37;;;9.10;;
8225;SDS011;4154;48.810;9.012;2022-11-12T19:05:44;13.47;;;11.40;;
8225;SDS011;4154;48.810;9.012;2022-11-12T19:09:03;12.53;;;11.23;;
8225;SDS011;4154;48.810;9.012;2022-11-12T19:12:42;12.23;;;11.00;;
8225;SDS011;4154;48.810;9.012;2022-11-12T19:16:08;9.97;;;8.93;;
8225;SDS011;4154;48.810;9.012;2022-11-12T19:31:57;11.27;;;9.70;;
8225;SDS011;4154;48.810;9.012;2022-11-12T19:34:40;10.57;;;9.43;;
8225;SDS011;4154;48.810;9.012;2022-11-12T19:38:20;11.27;;;10.07;;
8225;SDS011;4154;48.810;9.012;2022-11-12T19:56:39;9.60;;;8.60;;
8225;SDS011;4154;48.810;9.012;2022-11-12T20:00:25;8.60;;;7.70;;
8225;SDS011;4154;48.810;9.012;2022-11-12T20:15:19;12.30;;;10.53;;
8225;SDS011;4154;48.810;9.012;2022-11-12T20:21:32;11.37;;;10.27;;
8225;SDS011;4154;48.810;9.012;2022-11-12T20:25:10;12.77;;;11.37;;
8225;SDS011;4154;48.810;9.012;2022-11-12T20:35:41;12.63;;;10.90;;
8225;SDS011;4154;48.810;9.012;2022-11-12T20:38:34;10.50;;;9.47;;
8225;SDS011;4154;48.810;9.012;2022-11-12T20:45:23;11.67;;;10.57;;
8225;SDS011;4154;48.810;9.012;2022-11-12T21:17:03;11.60;;;10.23;;
8225;SDS011;4154;48.810;9.012;2022-11-12T21:37:56;9.90;;;8.87;;
8225;SDS011;4154;48.810;9.012;2022-11-12T21:41:27;9.20;;;8.17;;
8225;SDS011;4154;48.810;9.012;2022-11-12T22:05:20;10.00;;;9.10;;
8225;SDS011;4154;48.810;9.012;2022-11-12T22:07:56;10.70;;;9.60;;
8225;SDS011;4154;48.810;9.012;2022-11-12T22:10:38;10.50;;;8.83;;
8225;SDS011;4154;48.810;9.012;2022-11-12T22:17:52;10.87;;;8.80;;
8225;SDS011;4154;48.810;9.012;2022-11-12T22:21:02;10.10;;;8.80;;
8225;SDS011;4154;48.810;9.012;2022-11-12T22:24:30;10.17;;;9.07;;
8225;SDS011;4154;48.810;9.012;2022-11-12T22:31:21;10.17;;;9.03;;
8225;SDS011;4154;48.810;9.012;2022-11-12T22:34:35;10.53;;;9.43;;
8225;SDS011;4154;48.810;9.012;2022-11-12T22:37:24;10.60;;;9.50;;
8225;SDS011;4154;48.810;9.012;2022-11-12T22:40:03;11.70;;;9.30;;
8225;SDS011;4154;48.810;9.012;2022-11-12T22:45:48;11.00;;;9.87;;
8225;SDS011;4154;48.810;9.012;2022-11-12T22:48:21;10.70;;;9.60;;
8225;SDS011;4154;48.810;9.012;2022-11-12T22:55:25;11.30;;;9.27;;
8225;SDS011;4154;48.810;9.012;2022-11-12T22:58:22;11.37;;;10.17;;
8225;SDS011;4154;48.810;9.012;2022-11-12T23:01:55;11.40;;;9.80;;
8225;SDS011;4154;48.810;9.012;2022-11-12T23:05:11;10.23;;;9.10;;
8225;SDS011;4154;48.810;9.012;2022-11-12T23:12:16;10.27;;;9.17;;